Time;durP1;ratioP1;P1;durP2;ratioP2;P2;SDS_P1;SDS_P2;PMS_P1;PMS_P2;Temp;Humidity;BMP_temperature;BMP_pressure;BME280_temperature;BME280_humidity;BME280_pressure;Samples;Min_cycle;Max_cycle;Signal;HPM_P1;HPM_P2
2023/10/11 00:00:58;;;;;;;11.43;8.98;;;;;;;15.30;93.40;100908.97;7398831;19;20481;-68
2023/10/11 00:03:32;;;;;;;17.73;9.30;;;;;;;15.29;92.95;100909.88;7401831;19;20027;-68
2023/10/11 00:06:04;;;;;;;13.15;8.95;;;;;;;15.28;93.03;100902.91;7399658;19;20082;-67
2023/10/11 00:08:39;;;;;;;11.60;8.23;;;;;;;15.26;92.92;100904.72;7398712;19;20033;-68
2023/10/11 00:11:10;;;;;;;14.45;9.20;;;;;;;15.25;92.44;100911.81;7401722;19;20024;-68
2023/10/11 00:13:40;;;;;;;16.98;9.18;;;;;;;15.25;92.67;100913.56;7401845;19;20011;-68
2023/10/11 00:16:10;;;;;;;15.38;8.75;;;;;;;15.23;92.80;100913.63;7401131;19;20513;-66
2023/10/11 00:18:41;;;;;;;13.52;8.50;;;;;;;15.21;92.78;100911.97;7398751;19;20481;-68
2023/10/11 00:21:15;;;;;;;14.65;9.30;;;;;;;15.18;92.62;100902.38;7399146;19;20027;-68
2023/10/11 00:23:45;;;;;;;15.27;9.38;;;;;;;15.15;92.39;100891.91;7401668;19;20021;-68
2023/10/11 00:26:17;;;;;;;15.18;8.98;;;;;;;15.10;91.76;100888.59;7401157;19;20018;-67
2023/10/11 00:28:46;;;;;;;15.45;8.93;;;;;;;15.09;92.18;100890.38;7398905;19;20010;-67
2023/10/11 00:31:19;;;;;;;12.75;7.93;;;;;;;15.06;91.93;100890.47;7400603;19;20070;-68
2023/10/11 00:33:49;;;;;;;13.75;8.68;;;;;;;15.04;91.69;100889.69;7398873;19;20082;-68
2023/10/11 00:36:24;;;;;;;15.07;8.10;;;;;;;15.02;91.52;100893.31;7400835;19;20018;-68
2023/10/11 00:38:52;;;;;;;14.00;8.45;;;;;;;15.00;91.54;100882.81;7397884;19;20620;-68
2023/10/11 00:41:25;;;;;;;12.13;7.85;;;;;;;14.98;91.59;100882.00;7398184;19;20077;-68
2023/10/11 00:43:55;;;;;;;12.73;8.20;;;;;;;14.95;91.62;100882.09;7400329;19;20007;-67
2023/10/11 00:46:27;;;;;;;14.50;8.23;;;;;;;14.92;91.33;100877.78;7400887;19;20010;-67
2023/10/11 00:48:57;;;;;;;14.98;8.43;;;;;;;14.90;91.26;100873.50;7395818;19;20049;-67
2023/10/11 00:51:29;;;;;;;13.95;8.13;;;;;;;14.89;91.12;100882.34;7400335;19;20014;-67
2023/10/11 00:53:59;;;;;;;12.88;7.85;;;;;;;14.85;91.25;100886.00;7400743;19;20011;-69
2023/10/11 00:56:44;;;;;;;12.05;7.97;;;;;;;14.83;90.64;100891.34;7398126;19;20028;-67
2023/10/11 00:59:14;;;;;;;14.32;8.15;;;;;;;14.79;91.14;100887.97;7397209;19;20011;-68
2023/10/11 01:01:44;;;;;;;12.02;8.05;;;;;;;14.77;90.69;100881.00;7397573;19;20347;-68
2023/10/11 01:04:16;;;;;;;16.02;7.95;;;;;;;14.74;90.59;100881.16;7399960;19;20011;-68
2023/10/11 01:06:44;;;;;;;11.85;7.55;;;;;;;14.71;90.86;100882.13;7399465;19;20074;-68
2023/10/11 01:09:26;;;;;;;13.05;8.05;;;;;;;14.70;90.91;100880.38;7399396;19;20078;-67
2023/10/11 01:11:57;;;;;;;12.52;7.43;;;;;;;14.67;90.75;100875.22;7400074;19;20010;-68
2023/10/11 01:14:26;;;;;;;11.20;7.65;;;;;;;14.65;90.72;100863.84;7398005;19;20015;-68
2023/10/11 01:16:55;;;;;;;11.55;8.30;;;;;;;14.62;90.95;100858.63;7398859;19;20477;-67
2023/10/11 01:19:30;;;;;;;14.68;7.93;;;;;;;14.60;90.63;100855.22;7397076;19;20544;-67
2023/10/11 01:22:02;;;;;;;15.20;8.05;;;;;;;14.57;90.58;100852.66;7399058;19;20565;-68
2023/10/11 01:24:30;;;;;;;14.25;8.15;;;;;;;14.53;90.84;100851.91;7397204;19;20017;-68
2023/10/11 01:26:58;;;;;;;13.10;7.38;;;;;;;14.50;90.88;100850.25;7396461;19;20377;-68
2023/10/11 01:29:28;;;;;;;12.38;7.72;;;;;;;14.48;90.69;100849.47;7396579;19;20418;-68
2023/10/11 01:31:56;;;;;;;11.60;6.47;;;;;;;14.45;90.63;100851.34;7399032;19;20015;-68
2023/10/11 01:34:27;;;;;;;14.30;7.70;;;;;;;14.44;90.40;100854.91;7398518;19;20513;-68
2023/10/11 01:36:55;;;;;;;15.27;7.40;;;;;;;14.42;90.54;100848.81;7399138;19;20010;-68
2023/10/11 01:39:26;;;;;;;11.43;7.18;;;;;;;14.40;90.16;100848.88;7396546;19;20082;-68
2023/10/11 01:41:59;;;;;;;9.65;6.40;;;;;;;14.38;90.08;100853.34;7399116;19;20020;-68
2023/10/11 01:44:27;;;;;;;13.40;6.63;;;;;;;14.37;89.99;100859.56;7398804;19;20098;-68
2023/10/11 01:46:56;;;;;;;14.93;7.93;;;;;;;14.35;90.22;100858.72;7397881;19;20584;-68
2023/10/11 01:49:24;;;;;;;13.82;7.05;;;;;;;14.33;90.09;100855.28;7398102;19;20010;-68
2023/10/11 01:51:54;;;;;;;11.95;6.30;;;;;;;14.32;90.04;100853.56;7396361;19;20031;-69
2023/10/11 01:54:25;;;;;;;13.32;7.35;;;;;;;14.28;89.90;100850.19;7396699;19;20019;-68
2023/10/11 01:56:56;;;;;;;13.18;7.53;;;;;;;14.27;90.12;100850.25;7396515;19;20496;-68
2023/10/11 01:59:25;;;;;;;12.32;7.25;;;;;;;14.24;90.00;100834.50;7395733;19;20103;-68
2023/10/11 02:02:03;;;;;;;11.02;7.32;;;;;;;14.21;89.91;100837.25;7395769;19;20089;-68
2023/10/11 02:04:32;;;;;;;12.02;6.63;;;;;;;14.18;90.10;100836.44;7400666;19;20012;-68
2023/10/11 02:07:00;;;;;;;13.15;6.90;;;;;;;14.14;90.44;100826.03;7399976;19;20015;-69
2023/10/11 02:09:33;;;;;;;15.70;7.40;;;;;;;14.12;90.32;100820.81;7398913;19;20027;-68
2023/10/11 02:12:02;;;;;;;12.07;6.35;;;;;;;14.09;90.48;100822.72;7398271;19;20007;-68
2023/10/11 02:14:31;;;;;;;10.48;6.80;;;;;;;14.06;90.38;100817.56;7395696;19;20014;-68
2023/10/11 02:16:59;;;;;;;13.93;7.05;;;;;;;14.02;90.28;100819.44;7397168;19;20024;-67
2023/10/11 02:19:29;;;;;;;15.27;7.32;;;;;;;13.99;90.32;100812.50;7395632;19;20082;-68
2023/10/11 02:21:59;;;;;;;13.95;7.70;;;;;;;13.97;90.28;100816.09;7395630;19;20130;-68
2023/10/11 02:24:28;;;;;;;9.23;6.57;;;;;;;13.95;90.41;100812.63;7397718;19;20011;-67
2023/10/11 02:26:59;;;;;;;12.07;7.15;;;;;;;13.94;90.86;100810.91;7394957;19;20377;-67
2023/10/11 02:29:27;;;;;;;15.52;7.53;;;;;;;13.92;90.83;100807.47;7396730;19;20018;-68
2023/10/11 02:31:58;;;;;;;13.15;7.30;;;;;;;13.91;90.79;100806.59;7396735;19;20544;-68
2023/10/11 02:34:27;;;;;;;12.13;6.55;;;;;;;13.90;90.81;100804.91;7395696;19;20035;-68
2023/10/11 02:37:03;;;;;;;12.25;6.80;;;;;;;13.90;90.72;100809.31;7394960;19;20015;-68
2023/10/11 02:39:34;;;;;;;11.88;7.32;;;;;;;13.88;90.67;100801.44;7394620;19;20039;-68
2023/10/11 02:42:05;;;;;;;12.73;6.68;;;;;;;13.88;90.66;100800.59;7397022;19;20019;-69
2023/10/11 02:44:39;;;;;;;9.32;6.55;;;;;;;13.87;90.82;100796.25;7397126;19;20026;-68
2023/10/11 02:47:08;;;;;;;14.73;6.65;;;;;;;13.85;90.90;100791.03;7394544;19;20018;-69
2023/10/11 02:49:36;;;;;;;9.85;5.88;;;;;;;13.84;90.62;100790.13;7396278;19;20512;-68
2023/10/11 02:52:08;;;;;;;13.80;7.38;;;;;;;13.83;90.51;100784.94;7396227;19;20078;-68
2023/10/11 02:54:38;;;;;;;10.85;6.25;;;;;;;13.82;90.36;100791.97;7396721;19;20003;-69
2023/10/11 02:57:18;;;;;;;16.75;6.70;;;;;;;13.80;90.17;100790.28;7394618;19;20010;-69
2023/10/11 02:59:50;;;;;;;12.10;6.13;;;;;;;13.79;90.11;100784.16;7394501;19;20024;-68
2023/10/11 03:02:20;;;;;;;9.30;5.57;;;;;;;13.78;90.04;100789.50;7396421;19;20010;-68
2023/10/11 03:04:49;;;;;;;13.02;6.15;;;;;;;13.77;89.68;100783.34;7395515;19;20506;-68
2023/10/11 03:07:21;;;;;;;13.73;7.25;;;;;;;13.77;89.91;100783.34;7395435;19;20019;-68
2023/10/11 03:09:49;;;;;;;12.60;6.30;;;;;;;13.76;89.52;100770.22;7395387;19;20010;-68
2023/10/11 03:12:30;;;;;;;11.48;7.13;;;;;;;13.75;89.57;100785.19;7393417;19;20521;-68
2023/10/11 03:15:05;;;;;;;13.65;7.07;;;;;;;13.73;89.43;100786.16;7395910;19;20011;-69
2023/10/11 03:17:40;;;;;;;10.95;6.10;;;;;;;13.75;89.21;100781.69;7395311;19;20045;-67
2023/10/11 03:20:24;;;;;;;13.15;6.68;;;;;;;13.73;89.18;100781.75;7394318;19;20014;-68
2023/10/11 03:22:53;;;;;;;13.70;6.13;;;;;;;13.74;89.19;100774.72;7395302;19;20018;-67
2023/10/11 03:25:22;;;;;;;10.38;6.45;;;;;;;13.72;89.02;100769.47;7395355;19;20013;-68
2023/10/11 03:27:53;;;;;;;12.35;6.30;;;;;;;13.72;88.72;100765.97;7394403;19;20011;-67
2023/10/11 03:30:24;;;;;;;11.73;5.70;;;;;;;13.72;88.72;100764.19;7395262;19;20355;-67
2023/10/11 03:32:52;;;;;;;13.02;6.47;;;;;;;13.72;88.67;100755.44;7395110;19;20011;-68
2023/10/11 03:35:25;;;;;;;9.15;5.30;;;;;;;13.71;88.53;100757.22;7394546;19;20027;-68
2023/10/11 03:37:59;;;;;;;10.00;5.75;;;;;;;13.72;88.33;100764.19;7392994;19;20663;-67
2023/10/11 03:40:54;;;;;;;11.00;5.50;;;;;;;13.71;88.08;100753.69;7393446;19;20014;-68
2023/10/11 03:43:26;;;;;;;10.32;5.78;;;;;;;13.74;87.78;100757.09;7394225;19;20010;-68
2023/10/11 03:45:59;;;;;;;9.75;5.60;;;;;;;13.73;87.91;100749.25;7394643;19;20014;-67
2023/10/11 03:48:28;;;;;;;13.75;6.93;;;;;;;13.78;87.44;100745.53;7392460;19;20014;-68
2023/10/11 03:50:56;;;;;;;14.18;7.75;;;;;;;13.81;87.12;100753.34;7393853;19;20018;-68
2023/10/11 03:53:25;;;;;;;12.40;6.28;;;;;;;13.82;86.67;100751.56;7394170;19;20018;-67
2023/10/11 03:55:54;;;;;;;12.32;5.45;;;;;;;13.85;86.94;100738.28;7391880;19;20027;-69
2023/10/11 03:58:32;;;;;;;10.85;5.32;;;;;;;13.86;86.69;100739.97;7391682;19;20019;-69
2023/10/11 04:01:08;;;;;;;13.15;5.43;;;;;;;13.86;86.51;100742.63;7391958;19;20007;-68
2023/10/11 04:03:39;;;;;;;8.43;5.47;;;;;;;13.88;86.30;100742.59;7394325;19;20018;-68
2023/10/11 04:06:13;;;;;;;11.77;5.57;;;;;;;13.88;86.11;100740.78;7394187;19;20033;-67
2023/10/11 04:08:43;;;;;;;;;;;;;;;13.89;84.49;100741.63;7392576;19;20014;-68
2023/10/11 04:11:18;;;;;;;12.57;5.45;;;;;;;13.89;86.21;100734.59;7391712;19;20405;-67
2023/10/11 04:13:53;;;;;;;10.23;5.57;;;;;;;13.89;85.26;100739.88;7392149;19;20149;-68
2023/10/11 04:16:23;;;;;;;11.52;5.85;;;;;;;13.92;85.98;100744.19;7390990;19;20033;-66
2023/10/11 04:18:53;;;;;;;11.77;5.50;;;;;;;13.92;85.83;100744.19;7390736;19;20011;-67
2023/10/11 04:24:12;;;;;;;11.23;5.32;;;;;;;13.90;85.58;100738.09;7396606;19;20113;-69
2023/10/11 04:26:41;;;;;;;9.07;5.60;;;;;;;13.89;85.65;100739.88;7401081;19;20124;-68
2023/10/11 04:29:18;;;;;;;11.68;6.22;;;;;;;13.89;85.12;100742.53;7400967;19;20033;-67
2023/10/11 04:32:09;;;;;;;8.85;5.05;;;;;;;13.89;85.24;100739.88;7398731;19;20015;-68
2023/10/11 04:34:38;;;;;;;10.15;5.40;;;;;;;13.87;85.50;100746.97;7400153;19;20020;-68
2023/10/11 04:37:16;;;;;;;13.75;5.50;;;;;;;13.87;85.35;100743.50;7399937;19;20034;-68
2023/10/11 04:39:50;;;;;;;13.15;5.90;;;;;;;13.86;85.39;100742.63;7399033;19;20010;-68
2023/10/11 04:42:19;;;;;;;9.60;5.35;;;;;;;13.85;85.40;100738.28;7400057;19;20043;-68
2023/10/11 04:44:54;;;;;;;11.15;6.07;;;;;;;13.84;85.30;100737.41;7400098;19;20014;-68
2023/10/11 04:47:23;;;;;;;10.80;5.57;;;;;;;13.84;85.32;100731.28;7399344;19;20024;-66
2023/10/11 04:49:52;;;;;;;9.50;5.85;;;;;;;13.84;85.11;100736.56;7399779;19;20010;-68
2023/10/11 04:52:34;;;;;;;9.50;5.68;;;;;;;13.83;85.38;100733.03;7398298;19;20419;-68
2023/10/11 04:55:12;;;;;;;13.35;5.82;;;;;;;13.82;85.39;100733.09;7399808;19;20070;-68
2023/10/11 04:57:40;;;;;;;11.05;5.15;;;;;;;13.80;85.34;100727.88;7397499;19;20458;-68
2023/10/11 05:00:18;;;;;;;10.40;5.50;;;;;;;13.78;85.33;100740.25;7396305;19;20500;-67
2023/10/11 05:02:51;;;;;;;12.27;6.43;;;;;;;13.78;85.57;100736.75;7396507;19;20041;-67
2023/10/11 05:05:21;;;;;;;11.60;5.40;;;;;;;13.77;85.42;100729.75;7399191;19;20024;-68
2023/10/11 05:08:01;;;;;;;16.02;6.25;;;;;;;13.75;85.54;100731.59;7397462;19;20474;-67
2023/10/11 05:10:43;;;;;;;10.85;6.15;;;;;;;13.73;85.55;100721.09;7398827;19;20035;-68
2023/10/11 05:13:13;;;;;;;11.30;6.30;;;;;;;13.73;85.65;100725.53;7398352;19;20510;-67
2023/10/11 05:15:47;;;;;;;13.02;6.30;;;;;;;13.69;85.52;100720.34;7398950;19;20026;-68
2023/10/11 05:18:18;;;;;;;10.73;5.22;;;;;;;13.69;85.56;100730.03;7396890;19;20092;-67
2023/10/11 05:20:57;;;;;;;12.57;5.63;;;;;;;13.68;85.62;100728.31;7396842;19;20015;-67
2023/10/11 05:23:40;;;;;;;15.75;6.05;;;;;;;13.66;85.48;100728.38;7398577;19;20074;-68
2023/10/11 05:26:36;;;;;;;13.38;6.38;;;;;;;13.66;85.61;100722.22;7398924;19;20036;-68
2023/10/11 05:29:09;;;;;;;10.82;5.60;;;;;;;13.65;85.59;100723.16;7395320;19;20014;-67
2023/10/11 05:32:07;;;;;;;13.75;6.03;;;;;;;13.64;85.59;100719.63;7396869;19;20014;-67
2023/10/11 05:34:50;;;;;;;9.80;6.13;;;;;;;13.63;85.75;100725.81;7396833;19;20361;-68
2023/10/11 05:50:54;;;;;;;12.33;6.23;;;;;;;13.64;85.72;100718.78;7397889;19;20013;-69
2023/10/11 05:53:24;;;;;;;16.33;6.68;;;;;;;13.63;85.43;100717.91;7395938;19;20010;-67
2023/10/11 05:55:57;;;;;;;12.50;5.63;;;;;;;13.65;85.32;100720.53;7398059;19;20023;-67
2023/10/11 05:58:26;;;;;;;17.23;7.20;;;;;;;13.66;85.51;100716.94;7394985;19;20037;-67
2023/10/11 06:00:56;;;;;;;10.40;5.95;;;;;;;13.65;85.39;100715.25;7394892;19;20482;-68
2023/10/11 06:03:35;;;;;;;11.23;6.15;;;;;;;13.66;85.07;100711.66;7396397;19;20011;-68
2023/10/11 06:06:23;;;;;;;16.70;7.18;;;;;;;13.68;85.19;100709.84;7393914;19;20011;-68
2023/10/11 06:08:52;;;;;;;10.43;5.75;;;;;;;13.68;85.36;100708.06;7394843;19;20011;-68
2023/10/11 06:11:23;;;;;;;16.13;7.63;;;;;;;13.69;85.34;100716.84;7395263;19;20037;-67
2023/10/11 06:13:52;;;;;;;8.95;6.35;;;;;;;13.69;84.77;100712.44;7394890;19;20386;-68
2023/10/11 06:16:22;;;;;;;9.70;6.25;;;;;;;13.72;85.13;100715.88;7397325;19;20014;-68
2023/10/11 06:19:15;;;;;;;10.63;6.03;;;;;;;13.71;84.92;100709.75;7395214;19;20025;-67
2023/10/11 06:21:56;;;;;;;14.77;6.80;;;;;;;13.74;85.06;100714.06;7397692;19;20011;-69
2023/10/11 06:24:24;;;;;;;10.82;6.18;;;;;;;13.76;85.05;100712.22;7397714;19;20029;-68
2023/10/11 06:26:54;;;;;;;10.98;5.53;;;;;;;13.78;84.99;100716.50;7396623;19;20028;-69
2023/10/11 06:29:29;;;;;;;8.68;5.80;;;;;;;13.81;84.80;100721.69;7396476;19;20018;-68
2023/10/11 06:31:58;;;;;;;8.73;5.20;;;;;;;13.83;84.78;100719.00;7397040;19;20496;-68
2023/10/11 06:34:32;;;;;;;12.65;6.22;;;;;;;13.84;84.32;100720.72;7396533;19;20014;-68
2023/10/11 06:37:00;;;;;;;;;;;;;;;13.85;83.88;100720.66;7396749;19;20514;-68
2023/10/11 06:40:07;;;;;;;11.15;5.82;;;;;;;13.88;84.48;100724.13;7393579;19;20331;-69
2023/10/11 06:42:23;;;;;;;12.43;6.55;;;;;;;13.91;84.35;100721.34;7395512;19;20007;-67
2023/10/11 06:44:57;;;;;;;14.05;5.93;;;;;;;13.94;84.32;100718.59;7396505;19;20043;-67
2023/10/11 06:47:26;;;;;;;9.63;5.68;;;;;;;13.98;84.26;100721.06;7392578;19;20014;-68
2023/10/11 06:49:58;;;;;;;16.55;6.70;;;;;;;14.01;83.94;100713.06;7395807;19;20018;-67
2023/10/11 06:52:30;;;;;;;8.50;5.32;;;;;;;14.06;83.96;100717.31;7396127;19;20015;-68
2023/10/11 06:55:14;;;;;;;11.40;5.20;;;;;;;14.10;83.77;100716.28;7395497;19;20015;-68
2023/10/11 06:57:50;;;;;;;12.30;6.32;;;;;;;14.15;83.55;100717.84;7394019;19;20496;-68
2023/10/11 07:00:28;;;;;;;8.20;5.32;;;;;;;14.20;83.51;100722.91;7394981;19;20014;-68
2023/10/11 07:03:06;;;;;;;9.65;5.32;;;;;;;14.26;83.39;100721.84;7393498;19;20359;-69
2023/10/11 07:05:42;;;;;;;10.73;5.75;;;;;;;14.31;83.25;100726.03;7395939;19;20018;-67
2023/10/11 07:08:20;;;;;;;9.35;5.13;;;;;;;14.37;83.36;100734.63;7393555;19;20368;-67
2023/10/11 07:11:00;;;;;;;10.90;5.70;;;;;;;14.42;83.35;100733.53;7395915;19;20420;-68
2023/10/11 07:13:49;;;;;;;7.95;4.70;;;;;;;14.50;82.77;100738.53;7395938;19;20037;-68
2023/10/11 07:16:27;;;;;;;11.20;5.75;;;;;;;14.58;82.61;100736.44;7394553;19;20018;-68
2023/10/11 07:18:57;;;;;;;10.82;5.78;;;;;;;14.66;82.21;100741.47;7392666;19;20011;-68
2023/10/11 07:21:48;;;;;;;11.20;5.80;;;;;;;14.75;82.18;100748.19;7392995;19;20387;-67
2023/10/11 07:24:34;;;;;;;9.40;5.00;;;;;;;14.85;82.26;100738.09;7393636;19;20086;-67
2023/10/11 07:27:08;;;;;;;8.38;5.25;;;;;;;14.93;81.63;100739.50;7393481;19;20033;-68
2023/10/11 07:29:38;;;;;;;12.45;5.80;;;;;;;15.02;81.20;100738.28;7395015;19;20018;-68
2023/10/11 07:32:09;;;;;;;11.02;4.95;;;;;;;15.10;81.31;100737.97;7394790;19;20021;-68
2023/10/11 07:34:39;;;;;;;13.50;5.53;;;;;;;15.19;81.19;100723.53;7395147;19;20037;-67
2023/10/11 07:37:12;;;;;;;10.15;5.47;;;;;;;15.29;80.48;100724.84;7394033;19;20023;-68
2023/10/11 07:39:41;;;;;;;9.60;4.77;;;;;;;15.36;80.41;100723.69;7394273;19;20378;-67
2023/10/11 07:42:18;;;;;;;10.80;5.43;;;;;;;15.45;80.55;100715.34;7394717;19;20025;-68
2023/10/11 07:44:50;;;;;;;9.50;4.85;;;;;;;15.55;79.47;100709.69;7394951;19;20037;-67
2023/10/11 07:47:25;;;;;;;9.73;5.20;;;;;;;15.63;79.46;100707.56;7392976;19;20015;-68
2023/10/11 07:49:54;;;;;;;9.13;5.00;;;;;;;15.74;78.90;100705.31;7395103;19;20023;-67
2023/10/11 07:52:33;;;;;;;8.73;4.82;;;;;;;15.86;78.10;100706.59;7394205;19;20013;-68
2023/10/11 07:55:02;;;;;;;9.32;5.05;;;;;;;15.95;78.42;100708.81;7394779;19;20018;-67
2023/10/11 07:57:30;;;;;;;10.40;5.72;;;;;;;16.05;78.12;100698.69;7395223;19;20417;-69
2023/10/11 08:00:00;;;;;;;7.35;4.63;;;;;;;16.16;77.58;100711.41;7398917;19;20031;-68
2023/10/11 08:02:29;;;;;;;9.02;4.63;;;;;;;16.24;77.60;100714.59;7399137;19;20010;-68
2023/10/11 08:04:59;;;;;;;10.50;5.00;;;;;;;16.33;77.41;100718.59;7401659;19;20007;-67
2023/10/11 08:07:27;;;;;;;10.43;4.57;;;;;;;16.42;76.80;100707.56;7400676;19;20018;-68
2023/10/11 08:10:10;;;;;;;11.07;5.63;;;;;;;16.53;76.62;100715.03;7398211;19;20418;-67
2023/10/11 08:12:38;;;;;;;6.82;5.00;;;;;;;16.63;76.48;100704.84;7400772;19;20010;-68
2023/10/11 08:15:10;;;;;;;9.45;4.22;;;;;;;16.72;76.21;100693.81;7398188;19;20026;-69
2023/10/11 08:17:40;;;;;;;8.50;4.15;;;;;;;16.82;75.81;100693.34;7400177;19;20018;-68
2023/10/11 08:20:15;;;;;;;8.48;4.90;;;;;;;16.91;75.78;100691.16;7400306;19;20018;-69
2023/10/11 08:22:46;;;;;;;10.38;4.57;;;;;;;17.02;75.34;100687.09;7398858;19;20381;-69
2023/10/11 08:25:25;;;;;;;9.02;4.32;;;;;;;17.10;74.41;100685.78;7400139;19;20343;-68
2023/10/11 08:28:10;;;;;;;11.57;4.60;;;;;;;17.25;74.44;100693.94;7398667;19;20030;-68
2023/10/11 08:30:40;;;;;;;8.32;4.13;;;;;;;17.39;73.07;100687.91;7400206;19;20043;-68
2023/10/11 08:33:09;;;;;;;13.05;4.13;;;;;;;17.51;72.48;100687.25;7397950;19;20021;-70
2023/10/11 08:35:38;;;;;;;6.72;4.00;;;;;;;17.63;72.36;100682.25;7400102;19;20033;-68
2023/10/11 08:38:07;;;;;;;10.30;4.38;;;;;;;17.76;71.21;100693.94;7398410;19;20383;-69
2023/10/11 08:40:39;;;;;;;11.50;4.75;;;;;;;17.88;70.30;100689.78;7399699;19;20007;-68
2023/10/11 08:43:10;;;;;;;8.38;4.20;;;;;;;17.98;69.06;100699.00;7399958;19;20010;-68
2023/10/11 08:45:59;;;;;;;9.48;4.60;;;;;;;18.07;68.77;100698.53;7397231;19;20029;-68
2023/10/11 08:48:29;;;;;;;9.98;4.07;;;;;;;18.19;68.78;100689.03;7397248;19;20014;-68
2023/10/11 08:50:58;;;;;;;11.60;4.32;;;;;;;18.29;67.88;100700.00;7399898;19;20027;-68
2023/10/11 08:53:27;;;;;;;10.23;3.95;;;;;;;18.37;67.55;100702.22;7400006;19;20015;-68
2023/10/11 08:56:22;;;;;;;9.55;3.80;;;;;;;18.46;66.37;100698.22;7399678;19;20365;-68
2023/10/11 08:58:59;;;;;;;7.05;4.22;;;;;;;18.54;67.25;100706.63;7396365;19;20033;-67
2023/10/11 09:01:36;;;;;;;8.40;3.92;;;;;;;18.61;65.32;100694.69;7396388;19;20032;-69
2023/10/11 09:04:11;;;;;;;10.07;4.50;;;;;;;18.67;66.58;100699.66;7399153;19;20011;-67
2023/10/11 09:06:44;;;;;;;7.85;4.15;;;;;;;18.73;64.22;100699.31;7396588;19;20472;-67
2023/10/11 09:09:32;;;;;;;8.48;4.10;;;;;;;18.82;65.25;100699.75;7397236;19;20011;-68
2023/10/11 09:12:23;;;;;;;8.32;3.85;;;;;;;18.89;64.94;100698.44;7399669;19;20031;-68
2023/10/11 09:14:59;;;;;;;6.50;3.35;;;;;;;18.94;63.23;100707.03;7396081;19;20423;-68
2023/10/11 09:17:29;;;;;;;11.18;4.88;;;;;;;18.99;64.56;100712.09;7397906;19;20070;-69
2023/10/11 09:20:00;;;;;;;8.85;3.90;;;;;;;19.05;64.35;100698.44;7398809;19;20030;-69
2023/10/11 09:22:28;;;;;;;8.70;3.92;;;;;;;19.13;64.07;100695.34;7398759;19;20018;-69
2023/10/11 09:25:21;;;;;;;12.60;3.92;;;;;;;19.18;63.25;100691.47;7398866;19;20019;-68
2023/10/11 09:27:54;;;;;;;9.02;3.85;;;;;;;19.26;62.25;100687.47;7397663;19;20014;-68
2023/10/11 09:30:26;;;;;;;7.32;3.78;;;;;;;19.34;63.85;100687.91;7399557;19;20037;-68
2023/10/11 09:32:59;;;;;;;8.88;3.58;;;;;;;19.40;63.29;100679.56;7397116;19;20018;-69
2023/10/11 09:35:31;;;;;;;9.52;4.53;;;;;;;19.47;62.78;100670.25;7398461;19;20014;-69
2023/10/11 09:38:01;;;;;;;8.65;3.83;;;;;;;19.54;62.55;100678.72;7396502;19;20347;-69
2023/10/11 09:40:33;;;;;;;7.30;4.07;;;;;;;19.60;62.59;100681.03;7397335;19;20018;-68
2023/10/11 09:43:05;;;;;;;11.38;4.38;;;;;;;19.65;61.70;100686.91;7397539;19;20405;-69
2023/10/11 09:45:52;;;;;;;11.82;4.30;;;;;;;19.72;61.70;100692.72;7395767;19;20015;-69
2023/10/11 09:48:22;;;;;;;11.13;4.57;;;;;;;19.80;61.18;100684.25;7396311;19;20023;-69
2023/10/11 09:50:57;;;;;;;7.03;3.60;;;;;;;19.88;60.74;100689.13;7398259;19;20011;-69
2023/10/11 09:53:27;;;;;;;12.40;3.63;;;;;;;19.96;60.41;100685.03;7398128;19;20015;-68
2023/10/11 09:56:12;;;;;;;7.22;4.15;;;;;;;20.05;58.85;100690.75;7395181;19;20351;-69
2023/10/11 09:58:53;;;;;;;13.10;4.00;;;;;;;20.16;57.70;100682.94;7395394;19;20366;-68
2023/10/11 10:01:32;;;;;;;6.93;3.55;;;;;;;20.24;57.83;100680.66;7397021;19;20024;-69
2023/10/11 10:04:06;;;;;;;6.40;3.97;;;;;;;20.33;59.64;100698.72;7398184;19;20365;-68
2023/10/11 10:06:34;;;;;;;;;;;;;;;20.39;56.66;100696.63;7397868;19;20066;-68
2023/10/11 10:09:23;;;;;;;7.57;3.67;;;;;;;20.48;57.62;100696.03;7395050;19;19931;-68
2023/10/11 10:12:20;;;;;;;7.00;3.20;;;;;;;20.54;57.68;100692.97;7395388;19;20014;-69
2023/10/11 10:14:54;;;;;;;7.90;3.70;;;;;;;20.60;57.59;100699.69;7397364;19;20031;-68
2023/10/11 10:17:23;;;;;;;6.88;3.80;;;;;;;20.64;57.96;100696.75;7395480;19;20015;-69
2023/10/11 10:19:52;;;;;;;6.40;4.03;;;;;;;20.68;57.92;100695.56;7395978;19;20014;-68
2023/10/11 10:22:23;;;;;;;10.20;3.78;;;;;;;20.73;57.30;100698.00;7395093;19;20010;-68
2023/10/11 10:24:55;;;;;;;13.65;4.32;;;;;;;20.79;56.14;100686.09;7396014;19;20485;-69
2023/10/11 10:27:45;;;;;;;11.90;3.80;;;;;;;20.85;54.66;100695.47;7394857;19;20544;-69
2023/10/11 10:30:21;;;;;;;10.52;4.30;;;;;;;20.89;55.71;100695.19;7394782;19;20102;-68
2023/10/11 10:33:23;;;;;;;8.68;3.65;;;;;;;20.95;54.00;100694.78;7396032;19;20027;-69
2023/10/11 10:35:52;;;;;;;9.25;3.63;;;;;;;21.01;56.40;100682.00;7396769;19;20020;-69
2023/10/11 10:38:22;;;;;;;9.05;3.67;;;;;;;21.05;56.13;100676.31;7394452;19;20035;-68
2023/10/11 10:41:22;;;;;;;12.10;4.72;;;;;;;21.12;53.90;100677.63;7396308;19;20011;-68
2023/10/11 10:44:05;;;;;;;9.88;3.55;;;;;;;21.16;53.58;100678.28;7396409;19;20014;-68
2023/10/11 10:46:34;;;;;;;7.32;3.97;;;;;;;21.19;54.57;100674.56;7397000;19;20014;-68
2023/10/11 10:49:04;;;;;;;7.10;3.95;;;;;;;21.20;54.56;100666.44;7394606;19;20082;-68
2023/10/11 10:51:31;;;;;;;7.13;3.95;;;;;;;21.21;54.51;100673.50;7394183;19;20018;-70
2023/10/11 10:54:03;;;;;;;9.95;4.15;;;;;;;21.22;54.69;100666.31;7393547;19;20477;-68
2023/10/11 10:56:30;;;;;;;9.15;4.57;;;;;;;21.23;54.59;100676.03;7396292;19;20015;-70
2023/10/11 10:59:07;;;;;;;6.95;4.10;;;;;;;21.25;53.34;100664.31;7394093;19;20018;-68
2023/10/11 11:01:35;;;;;;;10.18;3.70;;;;;;;21.29;54.40;100665.84;7395652;19;20022;-69
2023/10/11 11:04:07;;;;;;;11.55;4.47;;;;;;;21.35;54.87;100663.69;7395191;19;20021;-69
2023/10/11 11:06:46;;;;;;;6.93;3.60;;;;;;;21.40;53.72;100670.41;7394383;19;20354;-70
2023/10/11 11:09:14;;;;;;;6.00;3.85;;;;;;;21.45;54.44;100665.63;7393277;19;20481;-69
2023/10/11 11:11:43;;;;;;;8.07;3.25;;;;;;;21.52;54.60;100652.72;7395152;19;20015;-69
2023/10/11 11:14:10;;;;;;;7.28;3.70;;;;;;;21.57;54.07;100653.28;7395128;19;20018;-70
2023/10/11 11:16:44;;;;;;;6.88;3.72;;;;;;;21.60;54.10;100650.38;7392711;19;20018;-70
2023/10/11 11:19:16;;;;;;;9.27;3.60;;;;;;;21.64;54.06;100645.69;7394813;19;20359;-69
2023/10/11 11:21:45;;;;;;;9.00;4.18;;;;;;;21.66;54.42;100638.44;7392996;19;20410;-69
2023/10/11 11:24:17;;;;;;;11.85;4.07;;;;;;;21.69;53.88;100640.03;7392744;19;20025;-69
2023/10/11 11:26:47;;;;;;;7.93;3.75;;;;;;;21.74;53.94;100643.25;7395002;19;20037;-68
2023/10/11 11:29:31;;;;;;;7.82;3.70;;;;;;;21.77;52.40;100638.53;7393106;19;20034;-70
2023/10/11 11:32:14;;;;;;;;;;;;;;;21.81;52.44;100639.16;7392329;19;20035;-70
2023/10/11 11:35:00;;;;;;;7.85;3.58;;;;;;;21.84;52.49;100646.97;7393392;19;19990;-68
2023/10/11 11:37:29;;;;;;;11.50;4.20;;;;;;;21.88;53.32;100642.25;7394121;19;20014;-68
2023/10/11 11:40:17;;;;;;;10.18;4.32;;;;;;;21.89;53.70;100641.31;7394194;19;20027;-68
2023/10/11 11:42:47;;;;;;;7.22;3.72;;;;;;;21.93;53.23;100638.28;7392464;19;20078;-69
2023/10/11 11:45:14;;;;;;;11.15;3.95;;;;;;;21.96;53.44;100631.88;7394944;19;20086;-69
2023/10/11 11:47:56;;;;;;;11.55;4.20;;;;;;;21.97;53.03;100634.44;7393288;19;20478;-69
2023/10/11 11:50:22;;;;;;;10.55;4.20;;;;;;;22.00;52.90;100638.69;7394653;19;20037;-69
2023/10/11 11:52:50;;;;;;;12.57;3.97;;;;;;;22.01;53.16;100624.38;7394060;19;20356;-67
2023/10/11 11:55:16;;;;;;;11.70;4.50;;;;;;;22.02;52.91;100615.41;7393869;19;20024;-68
2023/10/11 11:57:51;;;;;;;9.88;4.00;;;;;;;22.05;52.57;100606.31;7391173;19;20010;-68
2023/10/11 12:00:38;;;;;;;13.48;4.00;;;;;;;22.09;52.62;100606.00;7391463;19;20031;-69
2023/10/11 12:03:10;;;;;;;11.63;4.25;;;;;;;22.14;52.87;100603.00;7391904;19;20019;-68
2023/10/11 12:05:40;;;;;;;11.13;4.28;;;;;;;22.21;53.05;100593.53;7393717;19;20022;-69
2023/10/11 12:08:18;;;;;;;9.80;4.38;;;;;;;22.27;53.00;100609.13;7391594;19;20032;-69